Time,TemperatureF,DewpointF,PressureIn,WindDirection,WindDirectionDegrees,WindSpeedMPH,WindSpeedGustMPH,Humidity,HourlyPrecipIn,Conditions,Clouds,dailyrainin,SoftwareType,DateUTC
2013-09-19 00:01:00,60.0,50.0,30.18,WSW,239,3.0,4.0,70,0.00,,,0.00,,2013-09-19 04:01:00,
2013-09-19 00:25:00,59.0,50.0,30.18,WSW,243,3.0,4.0,72,0.00,,,0.00,,2013-09-19 04:25:00,
2013-09-19 00:54:00,59.0,50.0,30.18,SSW,211,3.0,4.0,72,0.00,,,0.00,,2013-09-19 04:54:00,
2013-09-19 01:23:00,58.0,50.0,30.18,SW,226,2.0,3.0,75,0.00,,,0.00,,2013-09-19 05:23:00,
2013-09-19 01:52:00,57.0,50.0,30.18,SW,219,2.0,3.0,76,0.00,,,0.00,,2013-09-19 05:52:00,
2013-09-19 02:02:00,57.0,50.0,30.18,SW,219,2.0,3.0,76,0.00,,,0.00,,2013-09-19 06:02:00,
2013-09-19 02:12:00,57.0,50.0,30.18,SW,219,2.0,3.0,76,0.00,,,0.00,,2013-09-19 06:12:00,
2013-09-19 02:22:00,57.0,50.0,30.18,SW,219,2.0,3.0,76,0.00,,,0.00,,2013-09-19 06:22:00,
2013-09-19 02:52:00,55.0,48.0,30.17,SW,229,0.0,0.0,77,0.00,,,0.00,,2013-09-19 06:52:00,
2013-09-19 03:02:00,55.0,48.0,30.17,SW,229,0.0,0.0,77,0.00,,,0.00,,2013-09-19 07:02:00,
2013-09-19 03:22:00,54.0,48.0,30.16,SW,228,0.0,0.0,79,0.00,,,0.00,,2013-09-19 07:22:00,
2013-09-19 03:33:00,54.0,48.0,30.16,SW,228,0.0,0.0,79,0.00,,,0.00,,2013-09-19 07:33:00,
2013-09-19 03:52:00,54.0,48.0,30.16,WSW,247,0.0,0.0,80,0.00,,,0.00,,2013-09-19 07:52:00,
2013-09-19 04:02:00,54.0,48.0,30.16,WSW,247,0.0,0.0,80,0.00,,,0.00,,2013-09-19 08:02:00,
2013-09-19 04:22:00,53.0,48.0,30.15,WSW,245,0.0,0.0,82,0.00,,,0.00,,2013-09-19 08:22:00,
2013-09-19 04:33:00,53.0,48.0,30.15,WSW,245,0.0,0.0,82,0.00,,,0.00,,2013-09-19 08:33:00,
2013-09-19 04:52:00,52.0,47.0,30.16,WSW,246,0.0,0.0,83,0.00,,,0.00,,2013-09-19 08:52:00,
2013-09-19 05:21:00,52.0,48.0,30.16,WSW,250,0.0,0.0,85,0.00,,,0.00,,2013-09-19 09:21:00,
2013-09-19 05:53:00,51.0,47.0,30.15,WSW,248,0.0,0.0,85,0.00,,,0.00,,2013-09-19 09:53:00,
2013-09-19 06:24:00,51.0,47.0,30.16,WSW,250,0.0,0.0,86,0.00,,,0.00,,2013-09-19 10:24:00,
2013-09-19 06:52:00,50.0,46.0,30.16,WSW,246,0.0,0.0,86,0.00,,,0.00,,2013-09-19 10:52:00,
2013-09-19 07:12:00,50.0,46.0,30.16,WSW,247,0.0,0.0,86,0.00,,,0.00,,2013-09-19 11:12:00,
2013-09-19 07:22:00,50.0,46.0,30.16,WSW,246,0.0,0.0,86,0.00,,,0.00,,2013-09-19 11:22:00,
2013-09-19 07:52:00,50.0,46.0,30.16,WSW,249,0.0,0.0,87,0.00,,,0.00,,2013-09-19 11:52:00,
2013-09-19 08:11:00,51.0,47.0,30.16,WSW,252,0.0,0.0,87,0.00,,,0.00,,2013-09-19 12:11:00,
2013-09-19 08:22:00,53.0,49.0,30.16,WSW,249,0.0,0.0,85,0.00,,,0.00,,2013-09-19 12:22:00,
2013-09-19 08:32:00,53.0,49.0,30.16,WSW,249,0.0,0.0,85,0.00,,,0.00,,2013-09-19 12:32:00,
2013-09-19 08:52:00,56.0,47.0,30.16,WSW,248,0.0,0.0,73,0.00,,,0.00,,2013-09-19 12:52:00,
2013-09-19 09:11:00,56.0,47.0,30.16,WSW,248,0.0,0.0,73,0.00,,,0.00,,2013-09-19 13:11:00,
2013-09-19 09:22:00,60.0,47.0,30.15,West,261,2.0,3.0,61,0.00,,,0.00,,2013-09-19 13:22:00,
2013-09-19 09:52:00,62.0,46.0,30.15,WSW,241,3.0,3.0,56,0.00,,,0.00,,2013-09-19 13:52:00,
2013-09-19 10:22:00,67.0,46.0,30.16,WNW,301,1.0,4.0,47,0.00,,,0.00,,2013-09-19 14:22:00,
2013-09-19 10:32:00,67.0,46.0,30.16,WNW,301,1.0,4.0,47,0.00,,,0.00,,2013-09-19 14:32:00,
2013-09-19 10:52:00,67.0,46.0,30.16,WNW,301,1.0,4.0,47,0.00,,,0.00,,2013-09-19 14:52:00,
2013-09-19 11:11:00,70.0,45.0,30.14,WSW,241,1.0,3.0,41,0.00,,,0.00,,2013-09-19 15:11:00,
2013-09-19 11:22:00,70.0,45.0,30.14,WSW,241,1.0,3.0,41,0.00,,,0.00,,2013-09-19 15:22:00,
2013-09-19 11:53:00,74.0,46.0,30.13,NW,314,3.0,4.0,37,0.00,,,0.00,,2013-09-19 15:53:00,
2013-09-19 12:04:00,74.0,46.0,30.13,NW,314,3.0,4.0,37,0.00,,,0.00,,2013-09-19 16:04:00,
2013-09-19 12:24:00,75.0,47.0,30.13,West,274,2.0,3.0,37,0.00,,,0.00,,2013-09-19 16:24:00,
2013-09-19 12:52:00,75.0,43.0,30.13,WSW,240,3.0,6.0,32,0.00,,,0.00,,2013-09-19 16:52:00,
2013-09-19 13:23:00,77.0,45.0,30.12,South,176,0.0,8.0,32,0.00,,,0.00,,2013-09-19 17:23:00,
2013-09-19 13:53:00,78.0,44.0,30.11,SW,227,4.0,8.0,30,0.00,,,0.00,,2013-09-19 17:53:00,
2013-09-19 14:11:00,77.0,42.0,30.10,WSW,247,3.0,6.0,29,0.00,,,0.00,,2013-09-19 18:11:00,
2013-09-19 14:22:00,77.0,42.0,30.10,WSW,247,3.0,6.0,29,0.00,,,0.00,,2013-09-19 18:22:00,
2013-09-19 14:52:00,79.0,43.0,30.09,WNW,288,2.0,8.0,28,0.00,,,0.00,,2013-09-19 18:52:00,
2013-09-19 15:12:00,78.0,42.0,30.09,SSW,196,2.0,6.0,28,0.00,,,0.00,,2013-09-19 19:12:00,
2013-09-19 15:22:00,78.0,42.0,30.09,WNW,283,2.0,6.0,28,0.00,,,0.00,,2013-09-19 19:22:00,
2013-09-19 15:52:00,78.0,46.0,30.08,WSW,258,3.0,9.0,32,0.00,,,0.00,,2013-09-19 19:52:00,
2013-09-19 16:12:00,78.0,45.0,30.08,WNW,283,3.0,6.0,31,0.00,,,0.00,,2013-09-19 20:12:00,
2013-09-19 16:22:00,78.0,45.0,30.08,WNW,283,3.0,6.0,31,0.00,,,0.00,,2013-09-19 20:22:00,
2013-09-19 16:32:00,78.0,45.0,30.08,WNW,283,3.0,6.0,31,0.00,,,0.00,,2013-09-19 20:32:00,
2013-09-19 17:22:00,76.0,46.0,30.06,SSW,203,3.0,3.0,34,0.00,,,0.00,,2013-09-19 21:22:00,
2013-09-19 17:55:00,75.0,51.0,30.06,SSE,167,2.0,10.0,43,0.00,,,0.00,,2013-09-19 21:55:00,
2013-09-19 18:14:00,73.0,52.0,30.06,South,184,4.0,10.0,48,0.00,,,0.00,,2013-09-19 22:14:00,
2013-09-19 18:24:00,73.0,52.0,30.06,South,184,4.0,10.0,48,0.00,,,0.00,,2013-09-19 22:24:00,
2013-09-19 18:53:00,71.0,56.0,30.07,ESE,109,3.0,8.0,59,0.00,,,0.00,,2013-09-19 22:53:00,
2013-09-19 19:23:00,69.0,56.0,30.07,ESE,121,1.0,3.0,63,0.00,,,0.00,,2013-09-19 23:23:00,
2013-09-19 19:53:00,68.0,56.0,30.08,SE,127,1.0,2.0,66,0.00,,,0.00,,2013-09-19 23:53:00,
2013-09-19 20:22:00,67.0,55.0,30.09,SE,126,0.0,2.0,65,0.00,,,0.00,,2013-09-20 00:22:00,
2013-09-19 20:52:00,66.0,54.0,30.08,SE,127,2.0,3.0,66,0.00,,,0.00,,2013-09-20 00:52:00,
2013-09-19 21:12:00,66.0,55.0,30.09,South,177,3.0,4.0,67,0.00,,,0.00,,2013-09-20 01:12:00,
2013-09-19 21:22:00,66.0,55.0,30.09,South,184,3.0,4.0,67,0.00,,,0.00,,2013-09-20 01:22:00,
2013-09-19 21:52:00,65.0,54.0,30.09,South,187,2.0,3.0,68,0.00,,,0.00,,2013-09-20 01:52:00,
2013-09-19 22:12:00,64.0,55.0,30.08,South,179,2.0,3.0,72,0.00,,,0.00,,2013-09-20 02:12:00,
2013-09-19 22:22:00,64.0,55.0,30.08,South,186,0.0,3.0,72,0.00,,,0.00,,2013-09-20 02:22:00,
2013-09-19 22:52:00,64.0,56.0,30.08,South,178,2.0,3.0,74,0.00,,,0.00,,2013-09-20 02:52:00,
2013-09-19 23:23:00,63.0,55.0,30.07,SSW,195,1.0,2.0,76,0.00,,,0.00,,2013-09-20 03:23:00,
2013-09-19 23:56:00,63.0,55.0,30.07,SSW,195,0.0,1.0,76,0.00,,,0.00,,2013-09-20 03:56:00,